YGD weather

Goderich Airport
Goderich, Ontario, Canada

Public forecast

Using degrees Celsius for public forecast. Weather courtesy of forecast.io.

METAR (pilot weather report)

Closest report is London Airport, 50.2 nm (92.9 km) SSE. Retrieved 2019/03/26 03:00 UTC (45 minutes ago):

CYXU 260300Z 31004KT 15SM SKC M04/M12 A3027 RMK SLP265

TAF (pilot weather forecast)

Forecast is more than 12 hours old.

Closest forecast is London Airport, 50.2 nm (92.9 km) SSE. Retrieved 2019/03/25 00:42 UTC (1 day ago):

TAF TAF CYXU 252339Z 2600/2624 32010G20KT P6SM SKC BECMG 2601/2603 36007KT RMK NXT FCST BY 260600Z